world map with LYVR marked

LYVR - Airport

This information may not be accurate or current and is not valid for navigation or flight planning. No warranty of fitness for any purpose is made or implied.

flag of Serbia

Donate via PayPal

Additional information is available on the NEW Great Circle Mapper

Location
City:  Vrsac, Serbia
ICAO:LYVR

Details
Type:Airport (Aerodrome, Airfield)
Use:Public/Civil, Military
Latitude:45°08'49"N (45.146889)
Longitude:21°18'36"E (21.309889)
Datum:WGS 1984
Elevation:276 ft (84 m)
Runways:3
Longest:3280 × 72 ft (1000 × 22 m)

Time
Timezone:UTC+1 (DST+4)
Local Time:

Weather
METAR:LYVR  041400Z 34006KT 310V110 9999 BKN016 06/01 Q1027 NOSIG
TAF:LYVR  041100Z 0412/0512 30008KT 9999 SCT015 BKN030 TX05/0413Z TN02/0506Z TEMPO 0412/0415 BKN015 TEMPO 0421/0512 2000 -RA BR BKN006

Related Locations
Nearby:
Farthest:CHT: 11559 mi / 18602 km
Waitangi [Tuuta], CIT, NZ

Find:

   beyond  
but within

Other Information
Maps:
Sources:

  


 


Great Circle Mapper   Great Circle Mapper
Great Circle Mapper FAQ   Great Circle Mapper FAQ
  Karl's Home Page
KLSē   KLSē Home
   GC on Facebook
Airlines of the World   Airlines of the World
Donate via PayPal


Copyright © 2004-2020, Karl L. Swartz. All rights reserved.
All trademarks mentioned herein belong to their respective owners.

Please see credits for attribution and copyright information.

Karl Swartz <karl@kls2.com>
  Powered by FreeBSD
Valid HTML 4.01!
Labeled with ICRA
hCard Microformat
Geo Microformat